Wanatah, Indiana
Current Conditions -  °F | °C
As of 9:56 AM on Friday 24 Oct 2014 (Local Time) from KVPZ Reporting Station
Overcast Overcast  
Wind Chill: 54°   Ceiling: 3300
Heat Index: 54°   Visibility: 10mi
Dew Point: 47°   Wind: 6mph
Humidity: 77%   Direction: 230°SW
Pressure: 30.08"   Gusts: NA
Location:  41.43°N, 86.9°W
Report Text: KVPZ 241456Z AUTO 23005KT 10SM SCT027 BKN033 OVC042 12/08 A3008 RMK AO2 SLP189 T01220083 50004 TSNO
Loading
Personal Weather Stations






























Interactive Weather Map New forecast layout! Learn more

10-Day Weather Forecast

Advertisements
Track Severe Weather on mobile